sensor_id;sensor_type;location;lat;lon;timestamp;P1;durP1;ratioP1;P2;durP2;ratioP2
14619;SDS011;32125;48.518;9.050;2022-10-31T00:02:22;15.47;;;7.33;;
14619;SDS011;32125;48.518;9.050;2022-10-31T00:04:48;10.70;;;7.53;;
14619;SDS011;32125;48.518;9.050;2022-10-31T00:07:14;10.63;;;8.17;;
14619;SDS011;32125;48.518;9.050;2022-10-31T00:09:42;13.50;;;8.03;;
14619;SDS011;32125;48.518;9.050;2022-10-31T00:12:08;11.30;;;7.70;;
14619;SDS011;32125;48.518;9.050;2022-10-31T00:14:36;12.90;;;7.93;;
14619;SDS011;32125;48.518;9.050;2022-10-31T00:17:02;11.13;;;8.23;;
14619;SDS011;32125;48.518;9.050;2022-10-31T00:19:28;12.53;;;8.17;;
14619;SDS011;32125;48.518;9.050;2022-10-31T00:21:54;11.90;;;8.23;;
14619;SDS011;32125;48.518;9.050;2022-10-31T00:24:20;10.73;;;8.73;;
14619;SDS011;32125;48.518;9.050;2022-10-31T00:26:46;13.60;;;8.30;;
14619;SDS011;32125;48.518;9.050;2022-10-31T00:29:12;12.33;;;8.10;;
14619;SDS011;32125;48.518;9.050;2022-10-31T00:31:38;12.37;;;7.70;;
14619;SDS011;32125;48.518;9.050;2022-10-31T00:34:04;10.33;;;7.63;;
14619;SDS011;32125;48.518;9.050;2022-10-31T00:36:30;10.30;;;7.53;;
14619;SDS011;32125;48.518;9.050;2022-10-31T00:38:57;13.97;;;8.17;;
14619;SDS011;32125;48.518;9.050;2022-10-31T00:41:23;10.43;;;7.50;;
14619;SDS011;32125;48.518;9.050;2022-10-31T00:43:49;10.43;;;7.60;;
14619;SDS011;32125;48.518;9.050;2022-10-31T00:46:15;13.77;;;7.53;;
14619;SDS011;32125;48.518;9.050;2022-10-31T00:48:44;15.30;;;7.60;;
14619;SDS011;32125;48.518;9.050;2022-10-31T00:51:10;11.90;;;7.37;;
14619;SDS011;32125;48.518;9.050;2022-10-31T00:53:38;11.17;;;7.83;;
14619;SDS011;32125;48.518;9.050;2022-10-31T00:56:07;10.10;;;7.77;;
14619;SDS011;32125;48.518;9.050;2022-10-31T00:58:35;14.73;;;7.73;;
14619;SDS011;32125;48.518;9.050;2022-10-31T01:01:02;12.33;;;7.53;;
14619;SDS011;32125;48.518;9.050;2022-10-31T01:03:29;12.10;;;8.27;;
14619;SDS011;32125;48.518;9.050;2022-10-31T01:06:00;11.80;;;8.07;;
14619;SDS011;32125;48.518;9.050;2022-10-31T01:08:28;10.90;;;7.43;;
14619;SDS011;32125;48.518;9.050;2022-10-31T01:11:11;13.23;;;7.80;;
14619;SDS011;32125;48.518;9.050;2022-10-31T01:13:44;11.57;;;7.67;;
14619;SDS011;32125;48.518;9.050;2022-10-31T01:16:14;12.53;;;7.30;;
14619;SDS011;32125;48.518;9.050;2022-10-31T01:18:41;13.53;;;7.13;;
14619;SDS011;32125;48.518;9.050;2022-10-31T01:23:33;8.47;;;7.43;;
14619;SDS011;32125;48.518;9.050;2022-10-31T01:26:03;12.57;;;8.27;;
14619;SDS011;32125;48.518;9.050;2022-10-31T01:28:36;9.57;;;7.60;;
14619;SDS011;32125;48.518;9.050;2022-10-31T01:31:04;10.73;;;8.23;;
14619;SDS011;32125;48.518;9.050;2022-10-31T01:33:34;13.13;;;7.90;;
14619;SDS011;32125;48.518;9.050;2022-10-31T01:36:01;9.87;;;7.77;;
14619;SDS011;32125;48.518;9.050;2022-10-31T01:38:27;10.13;;;7.60;;
14619;SDS011;32125;48.518;9.050;2022-10-31T01:40:53;8.73;;;7.37;;
14619;SDS011;32125;48.518;9.050;2022-10-31T01:43:21;8.70;;;7.37;;
14619;SDS011;32125;48.518;9.050;2022-10-31T01:45:50;11.50;;;7.33;;
14619;SDS011;32125;48.518;9.050;2022-10-31T01:48:29;10.40;;;7.70;;
14619;SDS011;32125;48.518;9.050;2022-10-31T01:50:56;9.17;;;6.90;;
14619;SDS011;32125;48.518;9.050;2022-10-31T01:53:24;10.17;;;7.00;;
14619;SDS011;32125;48.518;9.050;2022-10-31T01:55:50;8.30;;;7.10;;
14619;SDS011;32125;48.518;9.050;2022-10-31T01:58:19;11.30;;;7.13;;
14619;SDS011;32125;48.518;9.050;2022-10-31T02:00:49;9.43;;;7.17;;
14619;SDS011;32125;48.518;9.050;2022-10-31T02:03:20;9.10;;;6.80;;
14619;SDS011;32125;48.518;9.050;2022-10-31T02:05:50;7.93;;;7.10;;
14619;SDS011;32125;48.518;9.050;2022-10-31T02:08:23;7.40;;;6.60;;
14619;SDS011;32125;48.518;9.050;2022-10-31T02:10:50;8.77;;;6.20;;
14619;SDS011;32125;48.518;9.050;2022-10-31T02:13:19;11.37;;;7.17;;
14619;SDS011;32125;48.518;9.050;2022-10-31T02:15:49;15.67;;;7.43;;
14619;SDS011;32125;48.518;9.050;2022-10-31T02:18:20;17.60;;;8.37;;
14619;SDS011;32125;48.518;9.050;2022-10-31T02:20:50;8.30;;;7.20;;
14619;SDS011;32125;48.518;9.050;2022-10-31T02:42:17;9.93;;;7.03;;
14619;SDS011;32125;48.518;9.050;2022-10-31T02:47:36;8.07;;;6.57;;
14619;SDS011;32125;48.518;9.050;2022-10-31T02:50:04;8.83;;;6.43;;
14619;SDS011;32125;48.518;9.050;2022-10-31T02:52:33;9.27;;;6.50;;
14619;SDS011;32125;48.518;9.050;2022-10-31T02:57:37;10.10;;;6.53;;
14619;SDS011;32125;48.518;9.050;2022-10-31T03:00:07;9.13;;;6.20;;
14619;SDS011;32125;48.518;9.050;2022-10-31T03:20:43;8.67;;;6.63;;
14619;SDS011;32125;48.518;9.050;2022-10-31T03:23:14;9.13;;;6.57;;
14619;SDS011;32125;48.518;9.050;2022-10-31T03:25:42;9.37;;;6.60;;
14619;SDS011;32125;48.518;9.050;2022-10-31T03:28:09;8.70;;;7.30;;
14619;SDS011;32125;48.518;9.050;2022-10-31T03:30:41;8.20;;;6.80;;
14619;SDS011;32125;48.518;9.050;2022-10-31T03:33:19;8.43;;;7.13;;
14619;SDS011;32125;48.518;9.050;2022-10-31T03:35:50;7.60;;;6.57;;
14619;SDS011;32125;48.518;9.050;2022-10-31T03:38:17;11.33;;;6.63;;
14619;SDS011;32125;48.518;9.050;2022-10-31T03:40:44;10.70;;;6.40;;
14619;SDS011;32125;48.518;9.050;2022-10-31T03:43:15;9.83;;;5.50;;
14619;SDS011;32125;48.518;9.050;2022-10-31T03:45:45;8.47;;;6.07;;
14619;SDS011;32125;48.518;9.050;2022-10-31T03:48:12;7.67;;;5.43;;
14619;SDS011;32125;48.518;9.050;2022-10-31T03:50:48;7.97;;;5.50;;
14619;SDS011;32125;48.518;9.050;2022-10-31T03:53:22;6.77;;;5.63;;
14619;SDS011;32125;48.518;9.050;2022-10-31T03:56:07;5.80;;;5.20;;
14619;SDS011;32125;48.518;9.050;2022-10-31T04:01:24;8.47;;;5.60;;
14619;SDS011;32125;48.518;9.050;2022-10-31T04:03:54;8.23;;;6.30;;
14619;SDS011;32125;48.518;9.050;2022-10-31T04:06:21;8.87;;;6.17;;
14619;SDS011;32125;48.518;9.050;2022-10-31T04:08:51;8.90;;;6.67;;
14619;SDS011;32125;48.518;9.050;2022-10-31T04:11:22;8.27;;;5.90;;
14619;SDS011;32125;48.518;9.050;2022-10-31T04:13:53;8.17;;;6.20;;
14619;SDS011;32125;48.518;9.050;2022-10-31T04:16:24;10.77;;;6.17;;
14619;SDS011;32125;48.518;9.050;2022-10-31T04:18:51;9.73;;;6.47;;
14619;SDS011;32125;48.518;9.050;2022-10-31T04:21:17;8.67;;;6.67;;
14619;SDS011;32125;48.518;9.050;2022-10-31T04:23:43;12.43;;;7.90;;
14619;SDS011;32125;48.518;9.050;2022-10-31T04:26:13;11.73;;;7.57;;
14619;SDS011;32125;48.518;9.050;2022-10-31T04:28:39;10.87;;;7.43;;
14619;SDS011;32125;48.518;9.050;2022-10-31T04:31:05;13.23;;;7.47;;
14619;SDS011;32125;48.518;9.050;2022-10-31T04:33:31;10.30;;;7.67;;
14619;SDS011;32125;48.518;9.050;2022-10-31T04:35:57;10.90;;;7.23;;
14619;SDS011;32125;48.518;9.050;2022-10-31T04:38:23;9.83;;;7.33;;
14619;SDS011;32125;48.518;9.050;2022-10-31T04:40:49;13.83;;;7.57;;
14619;SDS011;32125;48.518;9.050;2022-10-31T04:43:15;11.57;;;7.67;;
14619;SDS011;32125;48.518;9.050;2022-10-31T04:45:41;12.33;;;7.07;;
14619;SDS011;32125;48.518;9.050;2022-10-31T04:48:07;13.90;;;7.20;;
14619;SDS011;32125;48.518;9.050;2022-10-31T04:50:33;9.83;;;7.47;;
14619;SDS011;32125;48.518;9.050;2022-10-31T04:53:01;19.23;;;8.40;;
14619;SDS011;32125;48.518;9.050;2022-10-31T04:55:27;13.60;;;7.60;;
14619;SDS011;32125;48.518;9.050;2022-10-31T04:57:55;9.93;;;6.70;;
14619;SDS011;32125;48.518;9.050;2022-10-31T05:00:22;17.73;;;8.00;;
14619;SDS011;32125;48.518;9.050;2022-10-31T05:05:14;10.60;;;7.20;;
14619;SDS011;32125;48.518;9.050;2022-10-31T05:07:44;10.87;;;6.77;;
14619;SDS011;32125;48.518;9.050;2022-10-31T05:10:13;7.57;;;6.43;;
14619;SDS011;32125;48.518;9.050;2022-10-31T05:12:45;9.17;;;6.30;;
14619;SDS011;32125;48.518;9.050;2022-10-31T05:15:16;7.70;;;6.90;;
14619;SDS011;32125;48.518;9.050;2022-10-31T05:17:43;7.47;;;6.67;;
14619;SDS011;32125;48.518;9.050;2022-10-31T05:20:10;7.43;;;6.57;;
14619;SDS011;32125;48.518;9.050;2022-10-31T05:22:41;8.67;;;6.47;;
14619;SDS011;32125;48.518;9.050;2022-10-31T05:25:09;9.63;;;6.70;;
14619;SDS011;32125;48.518;9.050;2022-10-31T05:27:38;6.50;;;5.87;;
14619;SDS011;32125;48.518;9.050;2022-10-31T05:30:04;7.20;;;6.33;;
14619;SDS011;32125;48.518;9.050;2022-10-31T05:32:35;6.83;;;5.90;;
14619;SDS011;32125;48.518;9.050;2022-10-31T05:35:02;8.70;;;6.30;;
14619;SDS011;32125;48.518;9.050;2022-10-31T05:37:28;9.43;;;6.60;;
14619;SDS011;32125;48.518;9.050;2022-10-31T05:39:54;8.60;;;6.67;;
14619;SDS011;32125;48.518;9.050;2022-10-31T05:42:20;9.77;;;6.97;;
14619;SDS011;32125;48.518;9.050;2022-10-31T05:44:46;9.70;;;7.03;;
14619;SDS011;32125;48.518;9.050;2022-10-31T05:47:12;7.53;;;6.73;;
14619;SDS011;32125;48.518;9.050;2022-10-31T05:49:38;9.07;;;8.17;;
14619;SDS011;32125;48.518;9.050;2022-10-31T05:52:06;10.50;;;8.47;;
14619;SDS011;32125;48.518;9.050;2022-10-31T05:54:32;12.37;;;7.67;;
14619;SDS011;32125;48.518;9.050;2022-10-31T05:57:00;10.83;;;6.93;;
14619;SDS011;32125;48.518;9.050;2022-10-31T05:59:26;9.10;;;6.90;;
14619;SDS011;32125;48.518;9.050;2022-10-31T06:01:52;8.90;;;6.20;;
14619;SDS011;32125;48.518;9.050;2022-10-31T06:04:18;8.23;;;6.43;;
14619;SDS011;32125;48.518;9.050;2022-10-31T06:06:44;9.60;;;6.67;;
14619;SDS011;32125;48.518;9.050;2022-10-31T06:09:10;11.53;;;7.33;;
14619;SDS011;32125;48.518;9.050;2022-10-31T06:11:36;12.20;;;6.77;;
14619;SDS011;32125;48.518;9.050;2022-10-31T06:14:02;11.77;;;6.57;;
14619;SDS011;32125;48.518;9.050;2022-10-31T06:16:28;11.40;;;7.43;;
14619;SDS011;32125;48.518;9.050;2022-10-31T06:18:57;11.27;;;6.67;;
14619;SDS011;32125;48.518;9.050;2022-10-31T06:21:23;17.40;;;7.37;;
14619;SDS011;32125;48.518;9.050;2022-10-31T06:23:49;9.33;;;6.87;;
14619;SDS011;32125;48.518;9.050;2022-10-31T06:26:15;10.73;;;6.90;;
14619;SDS011;32125;48.518;9.050;2022-10-31T06:28:41;14.57;;;7.13;;
14619;SDS011;32125;48.518;9.050;2022-10-31T06:31:07;10.80;;;6.47;;
14619;SDS011;32125;48.518;9.050;2022-10-31T06:33:33;10.53;;;6.33;;
14619;SDS011;32125;48.518;9.050;2022-10-31T06:36:00;11.40;;;7.10;;
14619;SDS011;32125;48.518;9.050;2022-10-31T06:38:26;11.33;;;6.53;;
14619;SDS011;32125;48.518;9.050;2022-10-31T06:40:55;9.93;;;6.60;;
14619;SDS011;32125;48.518;9.050;2022-10-31T06:43:21;10.03;;;6.63;;
14619;SDS011;32125;48.518;9.050;2022-10-31T06:45:47;9.33;;;7.00;;
14619;SDS011;32125;48.518;9.050;2022-10-31T06:48:13;10.40;;;7.20;;
14619;SDS011;32125;48.518;9.050;2022-10-31T06:50:39;8.73;;;6.70;;
14619;SDS011;32125;48.518;9.050;2022-10-31T06:53:07;10.27;;;6.00;;
14619;SDS011;32125;48.518;9.050;2022-10-31T06:55:35;7.77;;;5.77;;
14619;SDS011;32125;48.518;9.050;2022-10-31T06:58:01;8.23;;;5.50;;
14619;SDS011;32125;48.518;9.050;2022-10-31T07:00:28;8.70;;;5.93;;
14619;SDS011;32125;48.518;9.050;2022-10-31T07:05:20;7.57;;;5.87;;
14619;SDS011;32125;48.518;9.050;2022-10-31T07:07:47;8.20;;;5.57;;
14619;SDS011;32125;48.518;9.050;2022-10-31T07:10:13;11.23;;;5.40;;
14619;SDS011;32125;48.518;9.050;2022-10-31T07:12:39;10.63;;;5.60;;
14619;SDS011;32125;48.518;9.050;2022-10-31T07:15:06;8.73;;;5.33;;
14619;SDS011;32125;48.518;9.050;2022-10-31T07:17:32;6.17;;;5.10;;
14619;SDS011;32125;48.518;9.050;2022-10-31T07:19:58;6.03;;;5.20;;
14619;SDS011;32125;48.518;9.050;2022-10-31T07:22:23;6.97;;;5.77;;
14619;SDS011;32125;48.518;9.050;2022-10-31T07:24:49;7.30;;;5.57;;
14619;SDS011;32125;48.518;9.050;2022-10-31T07:27:15;6.63;;;5.73;;
14619;SDS011;32125;48.518;9.050;2022-10-31T07:29:41;8.43;;;5.73;;
14619;SDS011;32125;48.518;9.050;2022-10-31T07:32:07;6.17;;;5.57;;
14619;SDS011;32125;48.518;9.050;2022-10-31T07:34:36;6.47;;;5.30;;
14619;SDS011;32125;48.518;9.050;2022-10-31T07:37:04;7.67;;;5.80;;
14619;SDS011;32125;48.518;9.050;2022-10-31T07:39:33;10.67;;;4.80;;
14619;SDS011;32125;48.518;9.050;2022-10-31T07:41:59;9.33;;;5.30;;
14619;SDS011;32125;48.518;9.050;2022-10-31T07:44:25;14.07;;;5.27;;
14619;SDS011;32125;48.518;9.050;2022-10-31T07:46:51;7.10;;;4.57;;
14619;SDS011;32125;48.518;9.050;2022-10-31T07:49:17;7.73;;;4.70;;
14619;SDS011;32125;48.518;9.050;2022-10-31T07:51:43;5.93;;;4.80;;
14619;SDS011;32125;48.518;9.050;2022-10-31T07:54:09;12.13;;;4.43;;
14619;SDS011;32125;48.518;9.050;2022-10-31T07:56:34;8.30;;;4.47;;
14619;SDS011;32125;48.518;9.050;2022-10-31T07:59:00;7.63;;;4.73;;
14619;SDS011;32125;48.518;9.050;2022-10-31T08:01:26;10.93;;;4.83;;
14619;SDS011;32125;48.518;9.050;2022-10-31T08:03:54;11.07;;;4.53;;
14619;SDS011;32125;48.518;9.050;2022-10-31T08:06:20;7.30;;;4.13;;
14619;SDS011;32125;48.518;9.050;2022-10-31T08:08:46;8.73;;;4.30;;
14619;SDS011;32125;48.518;9.050;2022-10-31T08:11:12;8.43;;;4.47;;
14619;SDS011;32125;48.518;9.050;2022-10-31T08:13:38;8.50;;;4.30;;
14619;SDS011;32125;48.518;9.050;2022-10-31T08:16:08;10.13;;;3.90;;
14619;SDS011;32125;48.518;9.050;2022-10-31T08:18:34;6.53;;;4.13;;
14619;SDS011;32125;48.518;9.050;2022-10-31T08:21:05;5.90;;;3.93;;
14619;SDS011;32125;48.518;9.050;2022-10-31T08:23:31;9.50;;;3.90;;
14619;SDS011;32125;48.518;9.050;2022-10-31T08:25:58;6.57;;;3.60;;
14619;SDS011;32125;48.518;9.050;2022-10-31T08:28:27;7.27;;;3.97;;
14619;SDS011;32125;48.518;9.050;2022-10-31T08:30:54;6.13;;;3.77;;
14619;SDS011;32125;48.518;9.050;2022-10-31T08:33:23;8.33;;;3.90;;
14619;SDS011;32125;48.518;9.050;2022-10-31T08:35:51;7.13;;;3.93;;
14619;SDS011;32125;48.518;9.050;2022-10-31T08:38:17;5.73;;;3.90;;
14619;SDS011;32125;48.518;9.050;2022-10-31T08:40:47;7.87;;;4.00;;
14619;SDS011;32125;48.518;9.050;2022-10-31T08:43:15;5.40;;;3.40;;
14619;SDS011;32125;48.518;9.050;2022-10-31T08:45:42;7.30;;;3.80;;
14619;SDS011;32125;48.518;9.050;2022-10-31T08:48:12;6.23;;;3.73;;
14619;SDS011;32125;48.518;9.050;2022-10-31T08:50:38;11.63;;;4.00;;
14619;SDS011;32125;48.518;9.050;2022-10-31T08:53:06;8.07;;;3.67;;
14619;SDS011;32125;48.518;9.050;2022-10-31T08:55:34;8.10;;;3.90;;
14619;SDS011;32125;48.518;9.050;2022-10-31T08:58:00;7.67;;;3.87;;
14619;SDS011;32125;48.518;9.050;2022-10-31T09:00:26;8.20;;;4.27;;
14619;SDS011;32125;48.518;9.050;2022-10-31T09:02:59;9.90;;;4.47;;
14619;SDS011;32125;48.518;9.050;2022-10-31T09:05:27;9.57;;;4.10;;
14619;SDS011;32125;48.518;9.050;2022-10-31T09:07:56;7.93;;;4.20;;
14619;SDS011;32125;48.518;9.050;2022-10-31T09:10:25;5.77;;;4.17;;
14619;SDS011;32125;48.518;9.050;2022-10-31T09:13:02;11.03;;;4.43;;
14619;SDS011;32125;48.518;9.050;2022-10-31T09:15:32;8.00;;;4.20;;
14619;SDS011;32125;48.518;9.050;2022-10-31T09:17:59;6.03;;;3.97;;
14619;SDS011;32125;48.518;9.050;2022-10-31T09:20:28;7.40;;;4.00;;
14619;SDS011;32125;48.518;9.050;2022-10-31T09:22:55;8.87;;;3.90;;
14619;SDS011;32125;48.518;9.050;2022-10-31T09:25:22;10.10;;;4.10;;
14619;SDS011;32125;48.518;9.050;2022-10-31T09:27:55;6.93;;;4.70;;
14619;SDS011;32125;48.518;9.050;2022-10-31T09:30:22;9.47;;;4.30;;
14619;SDS011;32125;48.518;9.050;2022-10-31T09:32:47;7.87;;;4.17;;
14619;SDS011;32125;48.518;9.050;2022-10-31T09:35:14;10.13;;;4.43;;
14619;SDS011;32125;48.518;9.050;2022-10-31T09:37:39;10.33;;;4.30;;
14619;SDS011;32125;48.518;9.050;2022-10-31T09:40:08;5.40;;;4.03;;
14619;SDS011;32125;48.518;9.050;2022-10-31T09:42:55;6.40;;;4.20;;
14619;SDS011;32125;48.518;9.050;2022-10-31T09:53:10;11.43;;;4.00;;
14619;SDS011;32125;48.518;9.050;2022-10-31T09:55:40;6.67;;;3.70;;
14619;SDS011;32125;48.518;9.050;2022-10-31T09:58:43;7.40;;;4.10;;
14619;SDS011;32125;48.518;9.050;2022-10-31T10:01:04;9.57;;;4.30;;
14619;SDS011;32125;48.518;9.050;2022-10-31T10:03:50;7.97;;;3.70;;
14619;SDS011;32125;48.518;9.050;2022-10-31T10:06:22;5.43;;;3.93;;
14619;SDS011;32125;48.518;9.050;2022-10-31T10:08:49;7.07;;;4.03;;
14619;SDS011;32125;48.518;9.050;2022-10-31T10:16:35;8.27;;;4.18;;
14619;SDS011;32125;48.518;9.050;2022-10-31T10:26:59;7.75;;;4.03;;
14619;SDS011;32125;48.518;9.050;2022-10-31T10:29:50;10.63;;;4.50;;
14619;SDS011;32125;48.518;9.050;2022-10-31T10:32:24;7.07;;;3.90;;
14619;SDS011;32125;48.518;9.050;2022-10-31T10:34:51;9.43;;;4.50;;
14619;SDS011;32125;48.518;9.050;2022-10-31T10:37:23;7.72;;;4.07;;
14619;SDS011;32125;48.518;9.050;2022-10-31T10:39:54;6.30;;;3.90;;
14619;SDS011;32125;48.518;9.050;2022-10-31T10:42:29;8.65;;;3.88;;
14619;SDS011;32125;48.518;9.050;2022-10-31T10:45:17;4.97;;;3.92;;
14619;SDS011;32125;48.518;9.050;2022-10-31T10:48:14;5.47;;;4.00;;
14619;SDS011;32125;48.518;9.050;2022-10-31T10:50:49;7.35;;;3.78;;
14619;SDS011;32125;48.518;9.050;2022-10-31T10:58:23;7.90;;;3.25;;
14619;SDS011;32125;48.518;9.050;2022-10-31T11:00:49;7.75;;;3.63;;
14619;SDS011;32125;48.518;9.050;2022-10-31T11:03:16;10.45;;;3.63;;
14619;SDS011;32125;48.518;9.050;2022-10-31T11:05:55;6.05;;;3.30;;
14619;SDS011;32125;48.518;9.050;2022-10-31T11:08:27;6.47;;;3.40;;
14619;SDS011;32125;48.518;9.050;2022-10-31T11:13:23;7.05;;;3.63;;
14619;SDS011;32125;48.518;9.050;2022-10-31T11:15:50;5.05;;;3.10;;
14619;SDS011;32125;48.518;9.050;2022-10-31T11:18:24;4.45;;;3.05;;
14619;SDS011;32125;48.518;9.050;2022-10-31T11:20:52;6.00;;;3.53;;
14619;SDS011;32125;48.518;9.050;2022-10-31T11:23:21;5.82;;;3.20;;
14619;SDS011;32125;48.518;9.050;2022-10-31T11:26:14;5.88;;;3.40;;
14619;SDS011;32125;48.518;9.050;2022-10-31T11:28:43;8.85;;;3.30;;
14619;SDS011;32125;48.518;9.050;2022-10-31T11:31:23;9.43;;;3.22;;
14619;SDS011;32125;48.518;9.050;2022-10-31T11:33:52;7.18;;;3.40;;
14619;SDS011;32125;48.518;9.050;2022-10-31T11:36:24;7.05;;;3.83;;
14619;SDS011;32125;48.518;9.050;2022-10-31T11:38:55;7.22;;;3.22;;
14619;SDS011;32125;48.518;9.050;2022-10-31T11:41:25;6.03;;;3.55;;
14619;SDS011;32125;48.518;9.050;2022-10-31T11:44:01;9.10;;;3.50;;
14619;SDS011;32125;48.518;9.050;2022-10-31T11:49:00;6.80;;;3.45;;
14619;SDS011;32125;48.518;9.050;2022-10-31T11:51:28;8.13;;;3.65;;
14619;SDS011;32125;48.518;9.050;2022-10-31T11:54:00;9.18;;;3.50;;
14619;SDS011;32125;48.518;9.050;2022-10-31T11:56:38;7.47;;;3.80;;
14619;SDS011;32125;48.518;9.050;2022-10-31T11:59:05;6.95;;;3.03;;
14619;SDS011;32125;48.518;9.050;2022-10-31T12:01:50;5.15;;;3.20;;
14619;SDS011;32125;48.518;9.050;2022-10-31T12:04:17;6.32;;;3.28;;
14619;SDS011;32125;48.518;9.050;2022-10-31T12:06:44;6.75;;;3.25;;
14619;SDS011;32125;48.518;9.050;2022-10-31T12:09:24;5.07;;;3.40;;
14619;SDS011;32125;48.518;9.050;2022-10-31T12:19:47;8.40;;;3.78;;
14619;SDS011;32125;48.518;9.050;2022-10-31T12:22:37;7.97;;;3.80;;
14619;SDS011;32125;48.518;9.050;2022-10-31T12:28:54;10.82;;;3.58;;
14619;SDS011;32125;48.518;9.050;2022-10-31T12:49:32;9.60;;;3.80;;
14619;SDS011;32125;48.518;9.050;2022-10-31T13:01:06;12.00;;;4.60;;
14619;SDS011;32125;48.518;9.050;2022-10-31T13:06:09;8.83;;;4.03;;
14619;SDS011;32125;48.518;9.050;2022-10-31T13:08:38;8.03;;;4.10;;
14619;SDS011;32125;48.518;9.050;2022-10-31T13:11:10;11.37;;;4.10;;
14619;SDS011;32125;48.518;9.050;2022-10-31T13:16:24;9.53;;;3.90;;
14619;SDS011;32125;48.518;9.050;2022-10-31T13:18:58;8.68;;;4.43;;
14619;SDS011;32125;48.518;9.050;2022-10-31T13:24:33;8.38;;;3.83;;
14619;SDS011;32125;48.518;9.050;2022-10-31T13:27:20;9.77;;;3.92;;
14619;SDS011;32125;48.518;9.050;2022-10-31T13:30:47;5.90;;;3.78;;
14619;SDS011;32125;48.518;9.050;2022-10-31T13:35:15;8.27;;;3.92;;
14619;SDS011;32125;48.518;9.050;2022-10-31T13:37:44;10.00;;;3.63;;
14619;SDS011;32125;48.518;9.050;2022-10-31T13:40:21;7.78;;;3.60;;
14619;SDS011;32125;48.518;9.050;2022-10-31T13:45:20;8.63;;;3.40;;
14619;SDS011;32125;48.518;9.050;2022-10-31T13:47:55;8.00;;;3.83;;
14619;SDS011;32125;48.518;9.050;2022-10-31T13:53:34;8.52;;;3.53;;
14619;SDS011;32125;48.518;9.050;2022-10-31T13:56:25;8.82;;;3.20;;
14619;SDS011;32125;48.518;9.050;2022-10-31T14:01:24;10.00;;;3.35;;
14619;SDS011;32125;48.518;9.050;2022-10-31T14:06:22;8.50;;;3.38;;
14619;SDS011;32125;48.518;9.050;2022-10-31T14:08:49;6.10;;;3.47;;
14619;SDS011;32125;48.518;9.050;2022-10-31T14:11:24;7.63;;;3.50;;
14619;SDS011;32125;48.518;9.050;2022-10-31T14:13:52;5.10;;;2.97;;
14619;SDS011;32125;48.518;9.050;2022-10-31T14:16:25;8.43;;;3.67;;
14619;SDS011;32125;48.518;9.050;2022-10-31T14:19:02;6.28;;;3.40;;
14619;SDS011;32125;48.518;9.050;2022-10-31T14:21:36;6.05;;;3.10;;
14619;SDS011;32125;48.518;9.050;2022-10-31T14:24:12;7.88;;;3.42;;
14619;SDS011;32125;48.518;9.050;2022-10-31T14:26:54;5.28;;;3.10;;
14619;SDS011;32125;48.518;9.050;2022-10-31T14:29:31;10.95;;;4.00;;
14619;SDS011;32125;48.518;9.050;2022-10-31T14:32:21;6.07;;;3.83;;
14619;SDS011;32125;48.518;9.050;2022-10-31T14:50:24;7.50;;;3.50;;
14619;SDS011;32125;48.518;9.050;2022-10-31T14:52:54;7.43;;;3.67;;
14619;SDS011;32125;48.518;9.050;2022-10-31T14:55:21;8.85;;;3.33;;
14619;SDS011;32125;48.518;9.050;2022-10-31T14:57:50;8.80;;;3.78;;
14619;SDS011;32125;48.518;9.050;2022-10-31T15:00:20;8.82;;;3.55;;
14619;SDS011;32125;48.518;9.050;2022-10-31T15:05:25;8.55;;;4.38;;
14619;SDS011;32125;48.518;9.050;2022-10-31T15:07:53;7.88;;;4.20;;
14619;SDS011;32125;48.518;9.050;2022-10-31T15:12:46;8.73;;;3.90;;
14619;SDS011;32125;48.518;9.050;2022-10-31T15:17:43;11.15;;;4.20;;
14619;SDS011;32125;48.518;9.050;2022-10-31T15:20:12;6.97;;;4.45;;
14619;SDS011;32125;48.518;9.050;2022-10-31T15:22:48;7.18;;;4.00;;
14619;SDS011;32125;48.518;9.050;2022-10-31T15:25:20;7.18;;;4.07;;
14619;SDS011;32125;48.518;9.050;2022-10-31T15:27:51;8.47;;;4.43;;
14619;SDS011;32125;48.518;9.050;2022-10-31T15:30:21;7.67;;;4.13;;
14619;SDS011;32125;48.518;9.050;2022-10-31T15:32:48;9.10;;;4.10;;
14619;SDS011;32125;48.518;9.050;2022-10-31T15:35:53;9.87;;;4.47;;
14619;SDS011;32125;48.518;9.050;2022-10-31T15:38:07;9.23;;;5.00;;
14619;SDS011;32125;48.518;9.050;2022-10-31T15:40:34;9.33;;;4.90;;
14619;SDS011;32125;48.518;9.050;2022-10-31T15:43:02;7.10;;;4.87;;
14619;SDS011;32125;48.518;9.050;2022-10-31T15:45:32;7.00;;;4.70;;
14619;SDS011;32125;48.518;9.050;2022-10-31T15:48:44;14.37;;;4.90;;
14619;SDS011;32125;48.518;9.050;2022-10-31T15:50:50;7.80;;;4.63;;
14619;SDS011;32125;48.518;9.050;2022-10-31T15:53:24;8.70;;;5.37;;
14619;SDS011;32125;48.518;9.050;2022-10-31T15:55:54;8.73;;;4.73;;
14619;SDS011;32125;48.518;9.050;2022-10-31T15:58:22;7.27;;;5.23;;
14619;SDS011;32125;48.518;9.050;2022-10-31T16:01:00;8.97;;;5.37;;
14619;SDS011;32125;48.518;9.050;2022-10-31T16:03:27;8.87;;;5.47;;
14619;SDS011;32125;48.518;9.050;2022-10-31T16:12:04;9.23;;;6.07;;
14619;SDS011;32125;48.518;9.050;2022-10-31T16:17:34;13.60;;;6.40;;
14619;SDS011;32125;48.518;9.050;2022-10-31T16:20:00;12.57;;;6.23;;
14619;SDS011;32125;48.518;9.050;2022-10-31T16:22:29;10.20;;;6.00;;
14619;SDS011;32125;48.518;9.050;2022-10-31T16:25:10;14.60;;;7.60;;
14619;SDS011;32125;48.518;9.050;2022-10-31T16:27:36;10.60;;;6.27;;
14619;SDS011;32125;48.518;9.050;2022-10-31T16:32:57;12.43;;;7.67;;
14619;SDS011;32125;48.518;9.050;2022-10-31T16:35:35;12.97;;;6.80;;
14619;SDS011;32125;48.518;9.050;2022-10-31T16:38:04;11.07;;;6.37;;
14619;SDS011;32125;48.518;9.050;2022-10-31T16:40:34;11.93;;;6.67;;
14619;SDS011;32125;48.518;9.050;2022-10-31T16:43:00;9.50;;;6.10;;
14619;SDS011;32125;48.518;9.050;2022-10-31T16:45:27;13.90;;;6.23;;
14619;SDS011;32125;48.518;9.050;2022-10-31T16:48:02;9.77;;;6.00;;
14619;SDS011;32125;48.518;9.050;2022-10-31T16:50:28;14.17;;;6.40;;
14619;SDS011;32125;48.518;9.050;2022-10-31T16:52:54;10.33;;;6.50;;
14619;SDS011;32125;48.518;9.050;2022-10-31T16:55:20;10.63;;;6.37;;
14619;SDS011;32125;48.518;9.050;2022-10-31T16:57:50;9.70;;;6.30;;
14619;SDS011;32125;48.518;9.050;2022-10-31T17:00:25;10.10;;;6.10;;
14619;SDS011;32125;48.518;9.050;2022-10-31T17:02:52;10.00;;;5.57;;
14619;SDS011;32125;48.518;9.050;2022-10-31T17:05:20;10.10;;;6.53;;
14619;SDS011;32125;48.518;9.050;2022-10-31T17:07:46;12.73;;;7.87;;
14619;SDS011;32125;48.518;9.050;2022-10-31T17:10:13;15.50;;;7.67;;
14619;SDS011;32125;48.518;9.050;2022-10-31T17:12:41;10.73;;;7.50;;
14619;SDS011;32125;48.518;9.050;2022-10-31T17:15:13;10.90;;;6.87;;
14619;SDS011;32125;48.518;9.050;2022-10-31T17:17:40;12.63;;;7.23;;
14619;SDS011;32125;48.518;9.050;2022-10-31T17:20:39;13.77;;;6.83;;
14619;SDS011;32125;48.518;9.050;2022-10-31T17:22:59;10.57;;;7.07;;
14619;SDS011;32125;48.518;9.050;2022-10-31T17:25:26;11.73;;;7.43;;
14619;SDS011;32125;48.518;9.050;2022-10-31T17:27:53;12.80;;;7.20;;
14619;SDS011;32125;48.518;9.050;2022-10-31T17:30:20;13.47;;;7.20;;
14619;SDS011;32125;48.518;9.050;2022-10-31T17:32:46;11.57;;;7.00;;
14619;SDS011;32125;48.518;9.050;2022-10-31T17:35:13;12.30;;;6.80;;
14619;SDS011;32125;48.518;9.050;2022-10-31T17:37:40;11.27;;;6.80;;
14619;SDS011;32125;48.518;9.050;2022-10-31T17:40:07;12.60;;;7.27;;
14619;SDS011;32125;48.518;9.050;2022-10-31T17:42:33;11.77;;;6.87;;
14619;SDS011;32125;48.518;9.050;2022-10-31T17:45:00;13.53;;;7.40;;
14619;SDS011;32125;48.518;9.050;2022-10-31T17:47:26;15.57;;;7.73;;
14619;SDS011;32125;48.518;9.050;2022-10-31T17:49:52;14.17;;;7.63;;
14619;SDS011;32125;48.518;9.050;2022-10-31T17:52:18;12.40;;;7.40;;
14619;SDS011;32125;48.518;9.050;2022-10-31T17:54:44;13.60;;;7.63;;
14619;SDS011;32125;48.518;9.050;2022-10-31T17:57:10;11.90;;;7.80;;